createdAt,value
2018-09-18T00:16:33.509Z,6.00
2018-09-18T00:21:54.665Z,11.50
2018-09-18T00:24:23.061Z,6.53
2018-09-18T00:26:51.375Z,7.93
2018-09-18T00:29:19.674Z,7.73
2018-09-18T00:31:47.970Z,6.57
2018-09-18T00:34:16.303Z,6.43
2018-09-18T00:36:45.546Z,5.97
2018-09-18T00:39:13.843Z,8.33
2018-09-18T00:41:42.156Z,6.27
2018-09-18T00:44:10.495Z,8.37
2018-09-18T00:46:38.756Z,5.63
2018-09-18T00:49:07.047Z,9.43
2018-09-18T00:51:35.358Z,9.60
2018-09-18T00:54:03.602Z,6.73
2018-09-18T00:56:32.491Z,12.63
2018-09-18T00:59:00.739Z,6.73
2018-09-18T01:01:28.964Z,7.30
2018-09-18T01:03:57.198Z,5.37
2018-09-18T01:06:25.480Z,8.03
2018-09-18T01:08:53.724Z,5.70
2018-09-18T01:11:21.987Z,8.00
2018-09-18T01:20:07.474Z,7.60
2018-09-18T01:25:34.769Z,7.37
2018-09-18T02:22:43.654Z,6.27
2018-09-18T03:14:10.042Z,6.30
2018-09-18T03:16:38.339Z,6.63
2018-09-18T03:19:06.653Z,9.40
2018-09-18T04:22:21.702Z,10.77
2018-09-18T04:24:50.063Z,8.37
2018-09-18T04:27:18.372Z,8.20
2018-09-18T04:29:46.657Z,7.97
2018-09-18T04:32:14.942Z,10.83
2018-09-18T04:34:43.253Z,8.87
2018-09-18T04:37:11.549Z,7.83
2018-09-18T04:39:39.826Z,15.60
2018-09-18T04:42:08.122Z,7.53
2018-09-18T04:44:36.440Z,7.53
2018-09-18T04:47:04.713Z,7.47
2018-09-18T04:49:33.014Z,8.30
2018-09-18T04:52:01.292Z,6.93
2018-09-18T04:54:29.534Z,10.60
2018-09-18T04:56:57.806Z,7.20
2018-09-18T04:59:26.119Z,8.40
2018-09-18T05:01:54.364Z,9.23
2018-09-18T05:04:23.038Z,8.53
2018-09-18T05:06:51.287Z,8.43
2018-09-18T05:09:19.575Z,10.93
2018-09-18T05:11:47.801Z,9.00
2018-09-18T06:27:36.484Z,10.03
2018-09-18T06:30:05.024Z,8.83
2018-09-18T06:32:33.478Z,7.30
2018-09-18T06:35:01.817Z,7.77
2018-09-18T06:37:30.202Z,9.13
2018-09-18T06:39:58.499Z,10.50
2018-09-18T06:42:26.851Z,7.43
2018-09-18T06:44:55.159Z,7.50
2018-09-18T06:47:24.071Z,7.67
2018-09-18T06:49:52.364Z,7.43
2018-09-18T06:52:20.671Z,7.57
2018-09-18T06:54:48.997Z,8.87
2018-09-18T06:57:17.234Z,7.00
2018-09-18T06:59:45.506Z,7.73
2018-09-18T07:02:13.769Z,7.27
2018-09-18T07:04:42.003Z,8.30
2018-09-18T07:07:10.370Z,7.67
2018-09-18T07:09:38.711Z,11.77
2018-09-18T07:12:07.116Z,6.53
2018-09-18T07:17:28.143Z,8.53
2018-09-18T07:20:06.536Z,7.17
2018-09-18T07:25:27.763Z,6.10
2018-09-18T07:27:56.040Z,5.97
2018-09-18T07:30:24.287Z,9.70
2018-09-18T07:32:52.554Z,10.60
2018-09-18T07:35:20.812Z,6.13
2018-09-18T07:37:49.084Z,11.33
2018-09-18T07:40:17.364Z,7.17
2018-09-18T07:42:45.628Z,7.57
2018-09-18T07:48:06.390Z,6.73
2018-09-18T07:50:34.601Z,9.37
2018-09-18T07:53:02.888Z,6.90
2018-09-18T07:55:31.141Z,5.73
2018-09-18T07:57:59.443Z,8.47
2018-09-18T08:00:27.694Z,6.47
2018-09-18T08:02:55.944Z,7.27
2018-09-18T08:05:24.191Z,8.03
2018-09-18T08:07:52.392Z,7.57
2018-09-18T08:10:20.626Z,7.20
2018-09-18T08:21:38.940Z,7.57
2018-09-18T08:24:20.561Z,8.23
2018-09-18T09:12:42.869Z,7.57
2018-09-18T09:15:11.203Z,9.67
2018-09-18T09:17:39.513Z,8.27
2018-09-18T09:25:52.648Z,6.50
2018-09-18T09:28:20.924Z,8.63
2018-09-18T09:30:49.340Z,8.90
2018-09-18T09:33:17.655Z,7.63
2018-09-18T09:35:46.009Z,5.60
2018-09-18T09:38:14.300Z,9.53
2018-09-18T09:40:42.621Z,5.90
2018-09-18T09:43:10.965Z,7.37
2018-09-18T09:45:39.246Z,8.77
2018-09-18T09:48:07.574Z,4.83
2018-09-18T09:50:35.800Z,8.63
2018-09-18T09:53:04.074Z,5.27
2018-09-18T09:55:32.418Z,5.10
2018-09-18T09:58:00.690Z,5.40
2018-09-18T10:00:34.338Z,5.47
2018-09-18T10:03:02.676Z,6.47
2018-09-18T10:05:30.886Z,6.43
2018-09-18T10:07:59.129Z,5.63
2018-09-18T10:10:27.382Z,7.13
2018-09-18T10:24:49.103Z,5.63
2018-09-18T12:33:54.168Z,8.43
2018-09-18T12:36:22.478Z,4.10
2018-09-18T12:38:50.761Z,4.17
2018-09-18T12:41:19.095Z,3.80
2018-09-18T12:43:47.458Z,5.37
2018-09-18T12:46:15.745Z,5.93
2018-09-18T12:48:44.012Z,4.20
2018-09-18T12:51:12.297Z,4.27
2018-09-18T12:53:40.626Z,7.73
2018-09-18T12:56:08.964Z,5.20
2018-09-18T12:58:37.174Z,5.17
2018-09-18T13:01:05.550Z,8.67
2018-09-18T13:03:33.789Z,3.73
2018-09-18T13:06:02.043Z,4.17
2018-09-18T13:08:30.263Z,6.67
2018-09-18T13:10:58.513Z,3.67
2018-09-18T13:19:23.314Z,3.67
2018-09-18T14:16:06.921Z,6.77
2018-09-18T14:24:30.662Z,6.47
2018-09-18T15:15:46.559Z,10.47
2018-09-18T16:21:28.591Z,8.03
2018-09-18T16:23:56.892Z,14.93
2018-09-18T17:23:57.092Z,9.93
2018-09-18T17:29:18.110Z,13.67
2018-09-18T17:31:47.039Z,11.90
2018-09-18T17:34:15.357Z,14.10
2018-09-18T17:36:43.630Z,15.77
2018-09-18T17:39:12.467Z,13.47
2018-09-18T17:41:40.928Z,12.40
2018-09-18T17:44:09.773Z,15.33
2018-09-18T17:46:38.080Z,15.27
2018-09-18T17:49:06.507Z,11.70
2018-09-18T17:51:34.805Z,15.03
2018-09-18T17:54:03.100Z,14.87
2018-09-18T17:56:31.454Z,14.20
2018-09-18T17:58:59.731Z,10.70
2018-09-18T18:01:28.110Z,15.27
2018-09-18T18:03:56.390Z,11.67
2018-09-18T18:06:24.643Z,12.03
2018-09-18T18:08:52.881Z,12.90
2018-09-18T18:11:21.148Z,13.23
2018-09-18T18:38:08.723Z,11.75
2018-09-18T18:40:37.018Z,15.23
2018-09-18T18:43:05.322Z,12.50
2018-09-18T18:45:33.617Z,12.47
2018-09-18T18:48:02.155Z,14.37
2018-09-18T18:50:31.438Z,11.20
2018-09-18T18:52:59.734Z,9.80
2018-09-18T18:55:28.101Z,13.07
2018-09-18T18:57:56.434Z,11.17
2018-09-18T19:00:24.722Z,10.33
2018-09-18T19:02:53.066Z,10.43
2018-09-18T19:05:21.365Z,9.83
2018-09-18T19:07:49.647Z,9.97
2018-09-18T19:10:17.874Z,12.03
2018-09-18T19:12:46.101Z,8.07
2018-09-18T19:15:14.358Z,7.73
2018-09-18T19:17:42.606Z,11.47
2018-09-18T19:20:10.977Z,11.73
2018-09-18T19:25:32.697Z,10.73
2018-09-18T19:28:00.952Z,9.43
2018-09-18T19:30:29.210Z,8.60
2018-09-18T19:32:57.527Z,11.63
2018-09-18T19:35:25.754Z,14.90
2018-09-18T19:37:54.001Z,7.47
2018-09-18T19:40:22.241Z,8.27
2018-09-18T19:42:50.511Z,8.57
2018-09-18T19:45:18.802Z,7.83
2018-09-18T19:47:47.033Z,7.03
2018-09-18T19:50:15.447Z,9.97
2018-09-18T19:52:46.173Z,11.43
2018-09-18T19:55:14.978Z,9.63
2018-09-18T19:57:43.229Z,16.53
2018-09-18T20:00:12.149Z,10.30
2018-09-18T20:02:40.816Z,15.60
2018-09-18T20:05:09.062Z,14.83
2018-09-18T20:07:37.327Z,20.20
2018-09-18T20:10:05.765Z,20.97
2018-09-18T20:12:34.019Z,18.27
2018-09-18T20:15:02.329Z,18.80
2018-09-18T20:17:30.556Z,18.23
2018-09-18T20:28:33.266Z,23.90
2018-09-18T20:31:01.531Z,26.57
2018-09-18T20:33:29.798Z,24.97
2018-09-18T20:35:58.196Z,23.93
2018-09-18T20:38:26.484Z,26.50
2018-09-18T20:40:54.746Z,20.47
2018-09-18T20:43:23.025Z,24.47
2018-09-18T20:45:51.305Z,22.57
2018-09-18T20:48:19.636Z,19.13
2018-09-18T20:50:47.956Z,20.17
2018-09-18T20:53:16.198Z,24.07
2018-09-18T20:55:44.619Z,24.33
2018-09-18T20:58:12.882Z,26.43
2018-09-18T21:00:41.165Z,29.00
2018-09-18T21:03:09.500Z,24.53
2018-09-18T21:05:37.766Z,23.80
2018-09-18T21:08:06.027Z,26.07
2018-09-18T21:10:34.297Z,25.70
2018-09-18T21:21:51.434Z,22.27
2018-09-18T21:30:28.628Z,30.17
2018-09-18T21:32:56.985Z,21.67
2018-09-18T21:35:25.253Z,28.33
2018-09-18T21:37:53.571Z,25.53
2018-09-18T21:40:21.879Z,20.13
2018-09-18T21:42:50.154Z,18.60
2018-09-18T21:45:18.413Z,31.43
2018-09-18T21:47:46.684Z,22.77
2018-09-18T21:50:15.014Z,25.83
2018-09-18T21:52:43.345Z,28.77
2018-09-18T21:55:11.629Z,29.47
2018-09-18T21:57:39.881Z,26.27
2018-09-18T22:00:08.178Z,30.80
2018-09-18T22:02:36.422Z,22.87
2018-09-18T22:05:04.694Z,26.53
2018-09-18T22:07:32.946Z,32.37
2018-09-18T22:10:01.195Z,29.50
2018-09-18T22:12:29.522Z,27.67
2018-09-18T22:17:50.695Z,35.17
2018-09-18T22:23:11.461Z,27.80
2018-09-18T22:25:39.709Z,23.60
2018-09-18T23:23:27.702Z,26.37
2018-09-18T23:25:59.021Z,27.70
2018-09-18T23:28:27.335Z,29.93
2018-09-18T23:30:56.643Z,25.27
2018-09-18T23:33:24.945Z,28.87
2018-09-18T23:35:53.297Z,29.43
2018-09-18T23:38:21.622Z,27.83
2018-09-18T23:40:49.915Z,26.87
2018-09-18T23:43:18.249Z,26.57
2018-09-18T23:45:46.521Z,23.00
2018-09-18T23:48:14.786Z,23.60
2018-09-18T23:50:43.062Z,25.43
2018-09-18T23:53:11.315Z,26.40
2018-09-18T23:55:45.842Z,23.07
2018-09-18T23:58:14.136Z,22.07
